Time;durP1;ratioP1;P1;durP2;ratioP2;P2;SDS_P1;SDS_P2;PMS_P1;PMS_P2;Temp;Humidity;BMP_temperature;BMP_pressure;BME280_temperature;BME280_humidity;BME280_pressure;Samples;Min_cycle;Max_cycle;Signal;HPM_P1;HPM_P2
2022/08/24 00:00:20;;;;;;;7.18;3.53;;;;;;;26.81;36.44;99783.28;4190476;28;20223;-68
2022/08/24 00:02:22;;;;;;;3.80;3.05;;;;;;;26.88;36.02;99792.03;4190504;28;20285;-68
2022/08/24 00:04:24;;;;;;;8.82;3.00;;;;;;;27.09;36.13;99797.59;4185526;28;20200;-67
2022/08/24 00:06:27;;;;;;;5.57;3.20;;;;;;;26.77;36.27;99798.53;4187163;28;20272;-68
2022/08/24 00:08:30;;;;;;;4.30;3.00;;;;;;;26.84;36.27;99799.13;4191556;28;20250;-66
2022/08/24 00:10:31;;;;;;;5.95;3.10;;;;;;;26.71;36.72;99802.34;4192477;28;20212;-68
2022/08/24 00:12:33;;;;;;;6.50;3.53;;;;;;;26.55;37.06;99804.16;4194379;28;20211;-68
2022/08/24 00:14:35;;;;;;;6.25;3.13;;;;;;;26.82;36.55;99801.28;4194252;28;20265;-67
2022/08/24 00:16:36;;;;;;;7.45;3.53;;;;;;;26.84;36.17;99799.13;4187956;28;20258;-67
2022/08/24 00:18:38;;;;;;;7.70;3.50;;;;;;;26.42;37.15;99802.72;4191813;28;20812;-68
2022/08/24 00:20:40;;;;;;;5.03;3.60;;;;;;;26.33;36.94;99805.09;4194703;28;20293;-67
2022/08/24 00:22:45;;;;;;;6.10;3.53;;;;;;;25.75;37.85;99799.44;4193393;28;20242;-68
2022/08/24 00:24:47;;;;;;;5.20;3.40;;;;;;;26.45;36.84;99799.44;4194305;28;20239;-67
2022/08/24 00:26:49;;;;;;;6.45;3.10;;;;;;;26.19;37.31;99793.00;4193823;28;20247;-68
2022/08/24 00:28:51;;;;;;;6.53;3.50;;;;;;;25.89;37.45;99799.84;4193951;28;20796;-67
2022/08/24 00:30:52;;;;;;;7.15;3.20;;;;;;;25.55;38.00;99794.63;4194385;28;20235;-68
2022/08/24 00:32:55;;;;;;;5.00;3.40;;;;;;;26.01;37.29;99785.25;4193529;28;20266;-67
2022/08/24 00:34:57;;;;;;;4.00;3.10;;;;;;;26.02;37.57;99798.63;4193320;28;20270;-67
2022/08/24 00:36:59;;;;;;;5.75;3.17;;;;;;;25.86;37.55;99804.97;4193902;28;20227;-68
2022/08/24 00:39:02;;;;;;;7.18;3.60;;;;;;;25.92;37.43;99798.50;4194483;28;20231;-67
2022/08/24 00:41:04;;;;;;;4.55;3.30;;;;;;;26.08;37.45;99803.03;4192950;28;20666;-67
2022/08/24 00:43:08;;;;;;;6.55;3.30;;;;;;;25.89;37.68;99799.84;4193756;28;20284;-67
2022/08/24 00:45:12;;;;;;;7.57;3.53;;;;;;;25.69;38.01;99800.47;4194025;28;20235;-68
2022/08/24 00:47:30;;;;;;;4.45;3.13;;;;;;;25.68;38.19;99795.28;4192723;28;20226;-68
2022/08/24 00:49:53;;;;;;;3.10;2.80;;;;;;;26.21;37.44;99795.47;4193768;28;20223;-68
2022/08/24 00:52:16;;;;;;;3.67;3.10;;;;;;;26.36;37.14;99805.66;4185494;28;20232;-67
2022/08/24 00:54:18;;;;;;;4.32;3.35;;;;;;;25.98;37.49;99808.38;4185477;28;20224;-67
2022/08/24 00:56:27;;;;;;;7.88;3.97;;;;;;;26.10;37.14;99802.75;4184821;28;20220;-67
2022/08/24 00:58:35;;;;;;;6.63;3.22;;;;;;;26.07;37.52;99806.00;4179664;28;20265;-68
2022/08/24 01:00:45;;;;;;;6.93;3.10;;;;;;;25.68;37.95;99801.56;4191628;28;20219;-68
2022/08/24 01:02:57;;;;;;;5.47;3.08;;;;;;;25.70;37.75;99796.69;4192982;28;20296;-68
2022/08/24 01:05:06;;;;;;;7.25;3.13;;;;;;;25.84;37.48;99801.72;4192933;28;20297;-67
2022/08/24 01:07:08;;;;;;;5.13;3.38;;;;;;;25.52;37.95;99788.91;4193269;28;20234;-67
2022/08/24 01:09:09;;;;;;;4.28;3.17;;;;;;;25.67;37.83;99805.38;4193862;28;20228;-68
2022/08/24 01:11:16;;;;;;;6.18;3.35;;;;;;;25.80;37.83;99812.31;4192211;28;20764;-68
2022/08/24 01:13:19;;;;;;;3.20;2.90;;;;;;;25.92;37.57;99807.50;4193063;28;20253;-67
2022/08/24 01:15:21;;;;;;;4.30;3.60;;;;;;;25.89;37.68;99815.38;4193781;28;20794;-68
2022/08/24 01:19:49;;;;;;;3.70;3.30;;;;;;;24.95;39.37;99817.34;4193806;28;20231;-67
2022/08/24 01:22:05;;;;;;;3.10;2.75;;;;;;;25.01;39.75;99800.84;4193331;28;20285;-68
2022/08/24 01:24:11;;;;;;;6.68;3.00;;;;;;;25.75;37.93;99807.63;4192680;28;20800;-67
2022/08/24 01:26:18;;;;;;;3.85;3.10;;;;;;;25.58;37.85;99801.47;4192763;28;20277;-67
2022/08/24 01:28:21;;;;;;;5.47;3.45;;;;;;;25.32;38.16;99828.38;4193195;28;20219;-67
2022/08/24 01:30:28;;;;;;;3.97;2.88;;;;;;;24.78;39.89;99804.63;4193245;28;20234;-67
2022/08/24 01:32:38;;;;;;;4.47;3.17;;;;;;;24.57;39.77;99814.41;4192044;28;20211;-67
2022/08/24 01:34:39;;;;;;;5.25;2.97;;;;;;;25.54;38.03;99806.63;4186499;28;20404;-67
2022/08/24 01:36:44;;;;;;;6.38;3.40;;;;;;;25.77;37.96;99815.53;4184737;28;20296;-66
2022/08/24 01:38:47;;;;;;;6.32;3.22;;;;;;;25.02;38.71;99824.25;4183913;28;21181;-68
2022/08/24 01:40:56;;;;;;;3.63;3.03;;;;;;;25.22;38.55;99822.84;4192685;28;20234;-68
2022/08/24 01:42:58;;;;;;;4.07;2.90;;;;;;;25.86;37.62;99821.31;4184938;28;20284;-67
2022/08/24 01:45:00;;;;;;;5.75;3.47;;;;;;;25.65;37.79;99825.78;4192998;28;20235;-68
2022/08/24 01:47:04;;;;;;;5.32;3.25;;;;;;;25.83;37.47;99816.41;4191677;28;20235;-68
2022/08/24 01:49:09;;;;;;;6.78;3.22;;;;;;;24.79;39.44;99833.47;4193099;28;20227;-68
2022/08/24 01:51:10;;;;;;;4.90;3.58;;;;;;;24.33;40.48;99826.53;4192863;28;20219;-67
2022/08/24 01:53:12;;;;;;;4.22;3.10;;;;;;;24.67;40.13;99803.66;4191871;28;20235;-67
2022/08/24 01:55:15;;;;;;;5.22;3.33;;;;;;;24.26;40.93;99810.41;4192714;28;20235;-67
2022/08/24 01:57:25;;;;;;;3.45;3.00;;;;;;;24.76;39.84;99800.50;4191958;28;20323;-67
2022/08/24 01:59:27;;;;;;;5.90;3.20;;;;;;;25.36;38.58;99807.81;4191994;28;20292;-67
2022/08/24 02:01:33;;;;;;;4.65;3.22;;;;;;;25.62;38.42;99821.66;4191080;28;20227;-68
2022/08/24 02:03:35;;;;;;;5.43;3.45;;;;;;;25.65;37.87;99821.16;4192028;28;20254;-67
2022/08/24 02:05:37;;;;;;;6.78;3.40;;;;;;;25.44;37.86;99830.19;4191929;28;20256;-68
2022/08/24 02:07:39;;;;;;;5.13;3.83;;;;;;;25.15;38.33;99835.81;4192440;28;20232;-68
2022/08/24 02:09:41;;;;;;;4.95;3.97;;;;;;;24.73;39.27;99834.44;4184569;28;20317;-68
2022/08/24 02:11:42;;;;;;;4.68;3.75;;;;;;;24.38;39.47;99835.59;4191440;28;20239;-68
2022/08/24 02:13:44;;;;;;;5.88;3.40;;;;;;;24.26;39.83;99822.09;4192248;28;20352;-67
2022/08/24 02:15:46;;;;;;;8.70;3.90;;;;;;;24.01;40.33;99813.50;4192331;28;20239;-68
2022/08/24 02:17:48;;;;;;;7.28;4.03;;;;;;;23.87;40.51;99804.88;4184862;28;20590;-68
2022/08/24 02:19:50;;;;;;;5.65;3.30;;;;;;;24.39;39.88;99796.47;4191594;28;20281;-68
2022/08/24 02:21:52;;;;;;;4.65;3.63;;;;;;;24.62;39.27;99800.88;4192106;28;20674;-68
2022/08/24 02:23:53;;;;;;;5.95;4.00;;;;;;;23.91;40.68;99816.91;4191565;28;20239;-67
2022/08/24 02:25:55;;;;;;;4.37;3.57;;;;;;;23.91;40.69;99814.19;4192116;28;20235;-68
2022/08/24 02:27:58;;;;;;;4.93;3.72;;;;;;;24.00;41.13;99812.69;4192452;28;20235;-68
2022/08/24 02:30:00;;;;;;;7.85;3.90;;;;;;;23.91;40.72;99825.88;4192274;28;20234;-68
2022/08/24 02:32:03;;;;;;;6.57;3.83;;;;;;;23.54;41.37;99818.13;4192159;28;20227;-67
2022/08/24 02:34:05;;;;;;;5.97;3.13;;;;;;;24.38;40.25;99813.88;4190896;28;20228;-68
2022/08/24 02:36:08;;;;;;;6.30;3.75;;;;;;;24.37;40.10;99823.06;4191327;28;20281;-68
2022/08/24 02:38:27;;;;;;;4.47;3.43;;;;;;;24.41;39.79;99823.41;4192177;28;20219;-68
2022/08/24 02:40:28;;;;;;;6.30;3.70;;;;;;;24.74;39.22;99830.66;4187439;28;20273;-68
2022/08/24 02:42:30;;;;;;;6.45;3.60;;;;;;;24.13;40.18;99844.97;4187424;28;20652;-68
2022/08/24 02:44:32;;;;;;;4.95;3.78;;;;;;;24.45;40.17;99836.25;4191755;28;20196;-68
2022/08/24 02:46:34;;;;;;;6.20;4.07;;;;;;;24.66;39.72;99831.09;4191758;28;20227;-68
2022/08/24 02:48:36;;;;;;;6.88;3.67;;;;;;;24.79;39.24;99841.63;4191144;28;20258;-67
2022/08/24 02:50:44;;;;;;;6.17;3.80;;;;;;;24.81;39.25;99841.38;4192227;28;20430;-68
2022/08/24 02:52:45;;;;;;;5.05;3.63;;;;;;;24.77;39.39;99842.97;4188348;28;20280;-66
2022/08/24 02:54:47;;;;;;;7.88;3.67;;;;;;;24.85;38.96;99848.81;4191220;28;20780;-68
2022/08/24 02:56:49;;;;;;;4.68;3.47;;;;;;;23.63;41.06;99853.06;4186804;28;20285;-69
2022/08/24 02:58:51;;;;;;;4.10;3.20;;;;;;;23.73;41.13;99850.53;4192382;28;20231;-68
2022/08/24 03:00:54;;;;;;;4.70;3.40;;;;;;;23.20;42.27;99853.31;4191399;28;20830;-68
2022/08/24 03:02:56;;;;;;;4.35;3.10;;;;;;;23.27;42.27;99841.50;4191491;28;20235;-69
2022/08/24 03:04:58;;;;;;;4.00;3.60;;;;;;;23.39;42.18;99831.41;4183802;28;20239;-68
2022/08/24 03:07:00;;;;;;;5.50;3.78;;;;;;;24.49;39.99;99831.13;4190890;28;20239;-68
2022/08/24 03:09:03;;;;;;;4.38;3.50;;;;;;;24.06;40.46;99841.59;4183928;28;20278;-68
2022/08/24 03:11:07;;;;;;;7.40;3.67;;;;;;;24.40;39.71;99843.50;4192126;28;20235;-68
2022/08/24 03:13:08;;;;;;;7.18;3.50;;;;;;;24.18;39.87;99857.03;4190829;28;20659;-68
2022/08/24 03:15:10;;;;;;;6.03;3.45;;;;;;;24.25;40.04;99846.81;4192353;28;20291;-68
2022/08/24 03:17:12;;;;;;;8.02;4.03;;;;;;;24.39;39.62;99853.53;4191519;28;20231;-68
2022/08/24 03:19:14;;;;;;;4.45;3.35;;;;;;;24.00;40.29;99861.56;4191408;28;20292;-68
2022/08/24 03:21:17;;;;;;;5.22;3.47;;;;;;;23.99;40.43;99848.25;4191680;28;20367;-68
2022/08/24 03:23:19;;;;;;;5.82;3.83;;;;;;;24.10;40.11;99852.78;4190824;28;20297;-68
2022/08/24 03:25:23;;;;;;;7.20;4.23;;;;;;;23.24;41.86;99844.69;4189933;28;20288;-68
2022/08/24 03:27:25;;;;;;;6.53;3.58;;;;;;;22.92;42.58;99831.53;4190375;28;20270;-68
2022/08/24 03:29:27;;;;;;;6.30;3.80;;;;;;;22.67;43.11;99820.97;4183103;28;20245;-67
2022/08/24 03:31:34;;;;;;;4.23;3.60;;;;;;;23.81;41.36;99801.25;4187953;28;20632;-68
2022/08/24 03:33:35;;;;;;;5.28;3.75;;;;;;;23.43;41.99;99820.91;4191635;28;20360;-68
2022/08/24 03:35:38;;;;;;;5.22;3.60;;;;;;;22.98;42.94;99825.19;4183059;28;20288;-67
2022/08/24 03:37:40;;;;;;;5.17;3.73;;;;;;;22.99;42.29;99824.09;4190919;28;20597;-68
2022/08/24 03:39:42;;;;;;;5.32;3.85;;;;;;;23.72;41.29;99810.84;4192114;28;20231;-68
2022/08/24 03:41:43;;;;;;;5.75;3.67;;;;;;;23.34;41.72;99829.41;4189789;28;20273;-68
2022/08/24 03:43:45;;;;;;;6.60;3.57;;;;;;;22.88;42.41;99820.34;4184388;28;20228;-68
2022/08/24 03:45:47;;;;;;;6.05;3.70;;;;;;;23.09;42.34;99826.22;4192663;28;20231;-68
2022/08/24 03:47:49;;;;;;;5.70;4.13;;;;;;;23.53;41.60;99830.03;4194112;28;20617;-68
2022/08/24 03:49:52;;;;;;;4.40;3.90;;;;;;;23.52;41.63;99836.56;4186791;28;20235;-66
2022/08/24 03:51:53;;;;;;;6.00;3.67;;;;;;;23.29;42.09;99839.38;4194622;28;20285;-68
2022/08/24 03:53:58;;;;;;;5.00;3.78;;;;;;;24.26;40.21;99834.84;4194200;28;20231;-66
2022/08/24 03:56:00;;;;;;;7.53;3.75;;;;;;;24.14;40.49;99848.50;4182358;28;20235;-69
2022/08/24 03:58:07;;;;;;;6.63;4.20;;;;;;;24.43;40.09;99851.97;4187479;28;20258;-69
2022/08/24 04:00:11;;;;;;;7.03;4.00;;;;;;;24.39;40.15;99852.72;4192701;28;20231;-68
2022/08/24 04:02:12;;;;;;;7.25;4.05;;;;;;;24.24;40.35;99854.13;4188195;28;20300;-69
2022/08/24 04:04:15;;;;;;;6.85;3.80;;;;;;;24.24;40.46;99861.44;4194264;28;20235;-67
2022/08/24 04:06:19;;;;;;;8.73;4.00;;;;;;;23.95;40.83;99866.91;4193560;28;20289;-68
2022/08/24 04:08:21;;;;;;;7.73;4.00;;;;;;;23.35;42.03;99868.22;4194127;28;20231;-68
2022/08/24 04:10:22;;;;;;;6.25;4.30;;;;;;;24.02;41.09;99848.56;4194195;28;20668;-68
2022/08/24 04:12:25;;;;;;;5.53;4.20;;;;;;;23.89;41.07;99857.88;4193571;28;20208;-68
2022/08/24 04:14:27;;;;;;;6.73;4.40;;;;;;;23.83;41.24;99858.03;4194859;28;20245;-68
2022/08/24 04:16:29;;;;;;;5.23;4.00;;;;;;;23.75;41.52;99851.94;4194047;28;20690;-66
2022/08/24 04:18:31;;;;;;;8.50;4.37;;;;;;;23.94;41.37;99857.16;4193425;28;20230;-68
2022/08/24 04:20:38;;;;;;;6.70;4.97;;;;;;;24.18;40.65;99849.69;4194549;28;20265;-68
2022/08/24 04:22:40;;;;;;;5.63;4.13;;;;;;;23.89;41.27;99859.75;4194303;28;20656;-68
2022/08/24 04:24:42;;;;;;;6.57;4.57;;;;;;;23.62;41.85;99867.69;4193494;28;20283;-68
2022/08/24 04:26:44;;;;;;;8.80;4.60;;;;;;;23.99;41.40;99854.53;4193499;28;20372;-68
2022/08/24 04:28:47;;;;;;;5.97;4.57;;;;;;;23.05;42.41;99881.97;4194165;28;20783;-68
2022/08/24 04:30:50;;;;;;;5.37;4.40;;;;;;;22.63;43.22;99877.53;4193455;28;20231;-69
2022/08/24 04:32:51;;;;;;;8.63;4.80;;;;;;;22.90;42.90;99863.50;4194075;28;20235;-68
2022/08/24 04:34:53;;;;;;;7.50;4.93;;;;;;;22.39;43.72;99865.84;4186324;28;20309;-68
2022/08/24 04:36:55;;;;;;;5.30;4.50;;;;;;;22.68;43.50;99852.44;4192514;28;20249;-68
2022/08/24 04:38:56;;;;;;;6.93;4.60;;;;;;;22.59;43.81;99851.94;4186437;28;20232;-67
2022/08/24 04:40:58;;;;;;;8.57;5.00;;;;;;;22.85;43.17;99856.06;4185996;28;20239;-69
2022/08/24 04:43:00;;;;;;;5.87;5.10;;;;;;;22.97;43.19;99858.78;4187534;28;20238;-68
2022/08/24 04:45:03;;;;;;;7.70;4.87;;;;;;;22.59;43.39;99871.75;4193772;28;20235;-68
2022/08/24 04:47:07;;;;;;;7.97;4.60;;;;;;;22.75;43.55;99863.97;4186255;28;20258;-68
2022/08/24 04:49:08;;;;;;;5.03;4.53;;;;;;;22.76;43.21;99869.16;4185052;28;20227;-68
2022/08/24 04:51:12;;;;;;;5.97;4.57;;;;;;;22.19;44.50;99856.16;4185875;28;20232;-69
2022/08/24 04:53:15;;;;;;;7.27;4.53;;;;;;;22.59;43.74;99857.38;4193621;28;20235;-68
2022/08/24 04:55:17;;;;;;;6.03;5.23;;;;;;;22.51;43.82;99872.09;4192433;28;20235;-68
2022/08/24 04:57:19;;;;;;;6.90;5.00;;;;;;;22.37;43.99;99876.09;4185352;28;20245;-68
2022/08/24 04:59:20;;;;;;;8.77;5.07;;;;;;;22.61;43.58;99861.50;4191281;28;20302;-68
2022/08/24 05:01:25;;;;;;;6.93;5.37;;;;;;;22.61;43.73;99861.50;4177626;28;20224;-68
2022/08/24 05:03:27;;;;;;;7.93;4.97;;;;;;;22.03;44.63;99875.78;4186109;28;20224;-68
2022/08/24 05:05:29;;;;;;;6.43;4.47;;;;;;;22.46;44.03;99872.00;4185999;28;20298;-67
2022/08/24 05:07:30;;;;;;;6.97;5.23;;;;;;;22.46;43.89;99872.81;4191920;28;20281;-69
2022/08/24 05:09:32;;;;;;;7.53;5.40;;;;;;;21.94;44.57;99888.81;4183671;28;20286;-69
2022/08/24 05:11:36;;;;;;;7.40;4.97;;;;;;;22.60;43.73;99869.88;4190859;28;20700;-68
2022/08/24 05:13:37;;;;;;;8.40;5.23;;;;;;;22.31;44.24;99888.69;4193177;28;20601;-67
2022/08/24 05:15:41;;;;;;;10.20;5.20;;;;;;;22.12;44.63;99887.94;4193679;28;20284;-68
2022/08/24 05:17:43;;;;;;;7.83;5.23;;;;;;;22.25;44.28;99884.16;4193139;28;20227;-68
2022/08/24 05:19:52;;;;;;;9.17;5.17;;;;;;;22.33;44.09;99892.00;4193319;28;20613;-68
2022/08/24 05:21:54;;;;;;;8.17;5.00;;;;;;;22.60;43.69;99883.41;4193274;28;20235;-68
2022/08/24 05:23:55;;;;;;;6.73;5.23;;;;;;;21.93;44.83;99895.28;4184843;28;20228;-68
2022/08/24 05:26:09;;;;;;;9.60;5.30;;;;;;;22.42;43.91;99889.75;4184416;28;20261;-68
2022/08/24 05:28:11;;;;;;;5.60;5.00;;;;;;;22.35;44.27;99892.56;4186640;28;20231;-68
2022/08/24 05:30:13;;;;;;;7.27;5.30;;;;;;;22.39;44.22;99901.91;4192715;28;20235;-69
2022/08/24 05:32:16;;;;;;;8.67;5.17;;;;;;;22.58;43.80;99897.19;4193062;28;20708;-66
2022/08/24 05:34:18;;;;;;;6.30;4.93;;;;;;;22.31;44.52;99899.53;4190161;28;20368;-69
2022/08/24 05:36:24;;;;;;;8.47;5.40;;;;;;;22.31;44.46;99899.53;4179029;28;20231;-67
2022/08/24 05:38:25;;;;;;;8.60;5.27;;;;;;;22.14;44.18;99901.25;4193199;28;20757;-67
2022/08/24 05:40:27;;;;;;;7.53;4.77;;;;;;;22.09;44.63;99894.63;4193380;28;20268;-66
2022/08/24 05:42:35;;;;;;;6.87;5.37;;;;;;;22.21;44.35;99912.78;4191828;28;20203;-67
2022/08/24 05:44:36;;;;;;;5.70;4.57;;;;;;;22.22;44.18;99909.84;4192668;28;20207;-66
2022/08/24 05:46:38;;;;;;;7.53;4.90;;;;;;;22.20;44.25;99909.25;4191749;28;20219;-67
2022/08/24 05:48:40;;;;;;;6.23;4.67;;;;;;;21.80;44.88;99922.53;4191917;28;21044;-67
2022/08/24 05:50:42;;;;;;;5.03;4.50;;;;;;;22.01;44.97;99902.25;4192837;28;20227;-66
2022/08/24 05:52:43;;;;;;;8.37;4.83;;;;;;;21.98;44.82;99903.53;4192602;28;20589;-67
2022/08/24 05:54:51;;;;;;;11.27;5.30;;;;;;;22.14;44.59;99898.53;4192204;28;20695;-67
2022/08/24 05:56:53;;;;;;;7.30;5.20;;;;;;;21.99;44.81;99899.78;4184889;28;20235;-67
2022/08/24 05:58:56;;;;;;;6.53;4.67;;;;;;;22.42;44.34;99900.59;4192506;28;20238;-66
2022/08/24 06:00:58;;;;;;;8.87;5.20;;;;;;;22.42;44.31;99912.28;4192046;28;20230;-68
2022/08/24 06:03:00;;;;;;;8.10;6.27;;;;;;;22.41;44.25;99915.22;4191965;28;20262;-69
2022/08/24 06:05:02;;;;;;;6.93;4.87;;;;;;;22.07;44.92;99913.00;4192949;28;20314;-67
2022/08/24 06:07:08;;;;;;;7.13;4.77;;;;;;;21.35;46.50;99900.19;4191537;28;20223;-66
2022/08/24 06:09:10;;;;;;;9.53;4.90;;;;;;;21.67;45.84;99897.31;4192957;28;20651;-66
2022/08/24 06:11:23;;;;;;;7.00;4.87;;;;;;;21.57;46.59;99886.19;4192980;28;20227;-69
2022/08/24 06:13:32;;;;;;;8.30;5.13;;;;;;;21.05;47.19;99888.50;4191459;28;20326;-67
2022/08/24 06:15:34;;;;;;;8.20;4.53;;;;;;;20.88;47.62;99897.16;4192439;28;20268;-67
2022/08/24 06:17:36;;;;;;;10.97;5.07;;;;;;;21.10;47.49;99886.75;4192089;28;20219;-66
2022/08/24 06:19:38;;;;;;;8.90;4.90;;;;;;;20.84;47.65;99889.69;4192160;28;20314;-67
2022/08/24 06:21:40;;;;;;;5.03;4.10;;;;;;;21.30;47.35;99883.00;4192153;28;20719;-69
2022/08/24 06:23:43;;;;;;;6.27;4.50;;;;;;;21.01;47.76;99890.00;4192044;28;21039;-67
2022/08/24 06:28:04;;;;;;;6.73;4.63;;;;;;;21.49;46.92;99897.31;4185060;28;20230;-66
2022/08/24 06:30:08;;;;;;;6.40;4.27;;;;;;;21.49;46.90;99902.72;4191084;28;20301;-66
2022/08/24 06:32:10;;;;;;;6.20;4.30;;;;;;;21.99;46.26;99904.38;4192404;28;20235;-66
2022/08/24 06:34:14;;;;;;;7.30;4.73;;;;;;;22.22;45.72;99909.00;4189775;28;20285;-70
2022/08/24 06:36:16;;;;;;;7.17;4.47;;;;;;;21.49;47.31;99908.13;4185776;28;20296;-67
2022/08/24 06:38:23;;;;;;;7.53;4.43;;;;;;;22.53;45.58;99901.69;4192195;28;20631;-67
2022/08/24 06:40:25;;;;;;;5.87;4.27;;;;;;;22.47;45.56;99919.69;4192039;28;20766;-67
2022/08/24 06:42:30;;;;;;;6.50;4.67;;;;;;;22.61;45.19;99925.72;4191353;28;20203;-67
2022/08/24 06:44:32;;;;;;;4.60;3.77;;;;;;;22.66;45.24;99923.13;4191549;28;20207;-67
2022/08/24 06:46:38;;;;;;;6.93;4.10;;;;;;;22.74;45.43;99922.78;4191721;28;20208;-67
2022/08/24 06:48:40;;;;;;;4.80;4.13;;;;;;;22.63;45.54;99940.69;4191489;28;20645;-67
2022/08/24 06:50:42;;;;;;;5.80;4.20;;;;;;;22.65;45.51;99949.38;4191869;28;20231;-69
2022/08/24 06:52:43;;;;;;;5.90;3.77;;;;;;;22.93;45.19;99953.34;4188579;28;21272;-67
2022/08/24 06:54:45;;;;;;;6.07;3.97;;;;;;;23.24;44.66;99947.75;4216887;28;20912;-67
2022/08/24 06:56:46;;;;;;;6.93;4.20;;;;;;;23.17;44.85;99956.03;4185108;28;20589;-67
2022/08/24 06:58:49;;;;;;;5.87;3.93;;;;;;;23.33;44.39;99955.31;4190923;28;20235;-67
2022/08/24 07:00:50;;;;;;;4.67;3.70;;;;;;;23.35;44.68;99941.47;4190966;28;20227;-69
2022/08/24 07:02:53;;;;;;;5.00;4.13;;;;;;;23.34;44.39;99961.53;4191657;28;20287;-69
2022/08/24 07:04:55;;;;;;;5.57;3.40;;;;;;;23.60;44.54;99953.97;4191978;28;20262;-67
2022/08/24 07:06:56;;;;;;;6.25;3.88;;;;;;;23.50;44.20;99962.69;4191170;28;20227;-67
2022/08/24 07:08:58;;;;;;;6.37;3.60;;;;;;;24.13;43.57;99952.81;4184226;28;20284;-66
2022/08/24 07:11:01;;;;;;;6.03;3.37;;;;;;;23.27;45.11;99969.00;4192184;28;20235;-65
2022/08/24 07:13:03;;;;;;;6.50;3.57;;;;;;;23.52;44.58;99974.97;4190517;28;20368;-68
2022/08/24 07:15:05;;;;;;;6.20;3.50;;;;;;;24.19;43.44;99965.41;4190900;28;20262;-66
2022/08/24 07:17:17;;;;;;;5.47;3.67;;;;;;;23.53;44.58;99971.16;4183945;28;20734;-69
2022/08/24 07:19:19;;;;;;;4.30;3.47;;;;;;;23.72;43.82;99980.00;4192677;28;20231;-66
2022/08/24 07:21:21;;;;;;;4.68;3.15;;;;;;;24.51;42.83;99975.75;4190627;28;20297;-66
2022/08/24 07:23:23;;;;;;;6.90;3.50;;;;;;;24.04;43.59;99981.41;4188095;28;20227;-67
2022/08/24 07:25:44;;;;;;;5.00;3.50;;;;;;;24.26;43.38;99976.97;4191746;28;20281;-66
2022/08/24 07:27:51;;;;;;;5.35;3.17;;;;;;;24.93;42.00;99977.25;4188017;28;20342;-67
2022/08/24 07:29:53;;;;;;;4.50;3.40;;;;;;;24.68;42.82;99973.88;4193936;28;20299;-66
2022/08/24 07:32:14;;;;;;;5.00;3.25;;;;;;;24.50;42.96;99982.28;4188804;28;20231;-66
2022/08/24 07:34:16;;;;;;;7.32;3.50;;;;;;;24.73;42.48;99983.97;4195043;28;20249;-67
2022/08/24 07:36:18;;;;;;;6.70;3.55;;;;;;;24.71;42.73;99979.88;4195073;28;20235;-69
2022/08/24 07:38:23;;;;;;;6.22;3.30;;;;;;;24.18;43.30;99988.25;4195196;28;20215;-67
2022/08/24 07:40:27;;;;;;;5.47;3.47;;;;;;;24.59;42.89;99977.25;4197089;28;20235;-67
2022/08/24 07:42:29;;;;;;;5.75;3.67;;;;;;;24.83;42.46;99972.47;4199180;28;20279;-68
2022/08/24 07:44:32;;;;;;;4.95;3.10;;;;;;;24.05;43.66;99983.06;4203665;28;20203;-67
2022/08/24 07:46:34;;;;;;;5.22;3.42;;;;;;;24.01;44.02;99968.31;4201906;28;20215;-67
2022/08/24 07:48:36;;;;;;;7.90;3.22;;;;;;;25.23;42.37;99949.66;4203090;28;20218;-66
2022/08/24 07:50:38;;;;;;;4.50;2.67;;;;;;;25.70;41.47;99979.13;4203925;28;20250;-67
2022/08/24 07:52:40;;;;;;;5.18;3.08;;;;;;;25.35;41.82;99980.28;4203948;28;20238;-66
2022/08/24 07:54:42;;;;;;;5.60;3.05;;;;;;;25.39;42.02;99967.03;4191371;28;20226;-67
2022/08/24 07:56:43;;;;;;;7.47;3.10;;;;;;;24.52;42.94;99982.03;4184659;28;20262;-67
2022/08/24 07:58:45;;;;;;;5.32;3.17;;;;;;;25.51;41.44;99975.91;4193275;28;20303;-67
2022/08/24 08:00:48;;;;;;;7.45;3.00;;;;;;;25.22;41.92;99981.50;4193765;28;20227;-66
2022/08/24 08:02:49;;;;;;;4.43;3.28;;;;;;;25.36;42.13;99989.34;4194648;28;20284;-66
2022/08/24 08:04:54;;;;;;;5.03;3.17;;;;;;;25.25;42.02;99988.31;4194316;28;20235;-67
2022/08/24 08:06:55;;;;;;;6.75;3.00;;;;;;;25.97;41.42;99975.66;4193486;28;20234;-67
2022/08/24 08:08:57;;;;;;;7.20;3.28;;;;;;;25.91;41.45;99980.19;4194545;28;20231;-67
2022/08/24 08:11:01;;;;;;;4.25;3.00;;;;;;;25.75;41.68;99979.19;4193347;28;20231;-67
2022/08/24 08:13:04;;;;;;;4.53;3.00;;;;;;;26.08;40.81;99992.91;4183778;28;20274;-67
2022/08/24 08:15:08;;;;;;;5.40;2.90;;;;;;;25.79;41.46;99983.03;4194039;28;20623;-67
2022/08/24 08:17:10;;;;;;;5.82;3.17;;;;;;;25.05;42.25;99984.25;4194153;28;20231;-67
2022/08/24 08:19:12;;;;;;;4.82;2.85;;;;;;;26.52;40.44;99976.44;4183571;28;20239;-67
2022/08/24 08:25:56;;;;;;;5.32;2.85;;;;;;;26.02;41.01;99975.69;4192740;28;20227;-71
2022/08/24 08:27:58;;;;;;;3.03;2.50;;;;;;;26.49;40.62;99972.31;4194822;28;20276;-69
2022/08/24 08:30:14;;;;;;;5.78;2.83;;;;;;;26.46;40.13;99983.75;4193033;28;20223;-70
2022/08/24 08:32:16;;;;;;;4.38;2.45;;;;;;;27.28;39.34;99985.44;4191533;28;20219;-69
2022/08/24 08:34:18;;;;;;;3.35;2.65;;;;;;;26.13;41.24;99990.25;4193588;28;20652;-71
2022/08/24 08:36:21;;;;;;;4.28;3.05;;;;;;;26.34;40.58;99991.28;4190044;28;20224;-69
2022/08/24 08:38:23;;;;;;;4.47;2.78;;;;;;;26.55;40.59;99989.56;4189227;28;20227;-72
2022/08/24 08:40:43;;;;;;;6.25;2.80;;;;;;;26.55;40.11;99991.47;4190147;28;20228;-69
2022/08/24 08:43:00;;;;;;;3.25;2.60;;;;;;;26.52;40.81;99979.19;4192088;28;20227;-69
2022/08/24 08:45:16;;;;;;;4.30;2.85;;;;;;;27.25;39.96;99984.91;4193388;28;20656;-69
2022/08/24 08:47:48;;;;;;;3.75;2.70;;;;;;;27.22;39.79;99988.16;4191689;28;20227;-72
2022/08/24 08:50:24;;;;;;;4.43;2.67;;;;;;;27.26;39.69;99985.72;4190300;28;20235;-69
2022/08/24 08:52:53;;;;;;;3.22;2.60;;;;;;;27.36;39.50;99991.22;4188135;28;20235;-70
2022/08/24 08:55:17;;;;;;;4.28;2.85;;;;;;;27.20;39.10;99984.06;4191111;28;20231;-71
2022/08/24 08:57:52;;;;;;;4.68;2.63;;;;;;;27.22;39.22;99987.34;4189357;28;20310;-70
2022/08/24 09:00:06;;;;;;;4.93;2.72;;;;;;;27.34;38.89;99998.03;4192541;28;20226;-71
2022/08/24 09:02:35;;;;;;;4.45;2.75;;;;;;;27.70;38.95;99990.03;4192787;28;20238;-70
2022/08/24 09:04:58;;;;;;;4.35;2.65;;;;;;;28.09;38.34;99979.50;4151667;28;20657;-70
2022/08/24 09:07:37;;;;;;;4.32;2.78;;;;;;;28.27;38.45;99975.44;4179800;28;20722;-70
2022/08/24 09:09:42;;;;;;;3.95;2.72;;;;;;;28.09;38.29;99990.44;4177797;28;20320;-71
2022/08/24 09:11:52;;;;;;;4.07;2.70;;;;;;;28.18;38.10;99988.81;4198664;28;20307;-70
2022/08/24 09:14:03;;;;;;;3.15;2.58;;;;;;;28.31;37.80;99989.38;4189307;28;20231;-70
2022/08/24 09:16:23;;;;;;;5.10;2.60;;;;;;;28.33;37.76;99979.81;4191599;28;20288;-70
2022/08/24 09:18:51;;;;;;;8.13;2.55;;;;;;;28.44;36.99;99988.84;4185056;28;20226;-70
2022/08/24 09:21:08;;;;;;;4.18;2.58;;;;;;;28.27;37.23;99994.56;4190864;28;20227;-71
2022/08/24 09:23:16;;;;;;;4.72;2.30;;;;;;;28.86;36.84;99986.94;4193266;28;20630;-70
2022/08/24 09:25:25;;;;;;;5.97;2.60;;;;;;;28.70;36.76;99981.50;4191875;28;20307;-71
2022/08/24 09:27:33;;;;;;;4.38;2.50;;;;;;;28.81;36.36;99979.53;4191515;28;20250;-70
2022/08/24 09:29:36;;;;;;;7.88;2.65;;;;;;;29.19;35.94;99976.47;4192334;28;20238;-69
2022/08/24 09:31:50;;;;;;;5.43;2.47;;;;;;;28.40;36.63;99987.75;4193121;28;20227;-70
2022/08/24 09:33:54;;;;;;;5.90;2.72;;;;;;;28.46;36.63;99983.94;4193065;28;20229;-70
2022/08/24 09:36:05;;;;;;;3.15;2.33;;;;;;;28.41;37.57;99981.19;4185448;28;20355;-70
2022/08/24 09:38:42;;;;;;;6.70;2.78;;;;;;;28.99;36.48;99969.94;4192528;28;20227;-70
2022/08/24 09:40:44;;;;;;;7.15;2.75;;;;;;;28.99;36.48;99983.63;4190667;28;20236;-70
2022/08/24 09:43:23;;;;;;;7.20;2.58;;;;;;;29.28;35.91;99963.88;4183740;28;20244;-70
2022/08/24 09:45:43;;;;;;;5.05;2.65;;;;;;;29.47;35.83;99972.28;4185669;28;20611;-70
2022/08/24 09:47:50;;;;;;;5.03;2.58;;;;;;;29.26;36.30;99979.75;4192848;28;20762;-70
2022/08/24 09:50:27;;;;;;;4.30;2.40;;;;;;;29.12;36.58;99982.25;4193014;28;20273;-70
2022/08/24 09:53:02;;;;;;;6.07;2.70;;;;;;;29.85;35.63;99972.69;4193187;28;20696;-70
2022/08/24 09:55:07;;;;;;;3.63;2.60;;;;;;;29.86;35.25;99978.97;4191563;28;20230;-71
2022/08/24 09:57:19;;;;;;;7.00;2.40;;;;;;;29.89;34.96;99979.22;4182931;28;20234;-70
2022/08/24 09:59:35;;;;;;;9.13;2.53;;;;;;;29.90;35.07;99975.38;4184176;28;20227;-70